Time;durP1;ratioP1;P1;durP2;ratioP2;P2;SDS_P1;SDS_P2;PMS_P1;PMS_P2;Temp;Humidity;BMP_temperature;BMP_pressure;BME280_temperature;BME280_humidity;BME280_pressure;Samples;Min_cycle;Max_cycle;Signal;HPM_P1;HPM_P2
2022/10/09 00:02:21;;;;;;;579.97;417.15;;;12.90;99.90;;;;;;5006684;28;20202;-77
2022/10/09 00:04:47;;;;;;;583.25;413.38;;;12.90;99.90;;;;;;5003746;28;20193;-77
2022/10/09 00:07:14;;;;;;;574.78;404.58;;;12.90;99.90;;;;;;5009604;28;20243;-79
2022/10/09 00:09:41;;;;;;;576.88;409.45;;;12.90;99.90;;;;;;5004588;28;20279;-77
2022/10/09 00:12:09;;;;;;;583.58;417.30;;;12.90;99.90;;;;;;5008887;28;20205;-77
2022/10/09 00:14:36;;;;;;;571.53;416.70;;;12.90;99.90;;;;;;5009804;28;20624;-76
2022/10/09 00:17:02;;;;;;;590.25;415.17;;;12.90;99.90;;;;;;5021603;28;20224;-75
2022/10/09 00:19:29;;;;;;;572.28;392.85;;;12.90;99.90;;;;;;5018947;28;20208;-76
2022/10/09 00:21:56;;;;;;;581.40;415.45;;;12.80;99.90;;;;;;5003870;28;20556;-75
2022/10/09 00:24:23;;;;;;;574.33;414.85;;;12.80;99.90;;;;;;5003549;28;20576;-77
2022/10/09 00:26:50;;;;;;;566.60;411.23;;;12.80;99.90;;;;;;4997615;28;20246;-75
2022/10/09 00:29:18;;;;;;;560.13;404.35;;;12.80;99.90;;;;;;5008906;28;20598;-76
2022/10/09 00:31:44;;;;;;;579.90;406.88;;;12.80;99.90;;;;;;5000079;28;20211;-75
2022/10/09 00:34:11;;;;;;;569.58;390.33;;;12.80;99.90;;;;;;5005219;28;20208;-77
2022/10/09 00:36:38;;;;;;;575.53;408.70;;;12.80;99.90;;;;;;5001849;28;20197;-75
2022/10/09 00:39:05;;;;;;;569.58;399.65;;;12.80;99.90;;;;;;5006069;28;20196;-75
2022/10/09 00:41:33;;;;;;;560.55;410.60;;;12.80;99.90;;;;;;5008532;28;20666;-76
2022/10/09 00:44:01;;;;;;;496.35;407.83;;;12.70;99.90;;;;;;5017171;28;20232;-76
2022/10/09 00:46:34;;;;;;;503.98;406.10;;;12.70;99.90;;;;;;5006314;28;20206;-76
2022/10/09 00:49:09;;;;;;;561.83;407.70;;;12.70;99.90;;;;;;4999971;28;20213;-77
2022/10/09 00:51:36;;;;;;;584.15;406.15;;;12.70;99.90;;;;;;5002056;28;20665;-75
2022/10/09 00:54:07;;;;;;;586.25;404.60;;;12.70;99.90;;;;;;5003705;28;20201;-75
2022/10/09 00:56:34;;;;;;;577.88;400.25;;;12.70;99.90;;;;;;5003798;28;20208;-76
2022/10/09 00:59:02;;;;;;;576.97;408.73;;;12.70;99.90;;;;;;5001863;28;20197;-75
2022/10/09 01:01:30;;;;;;;575.67;390.45;;;12.70;99.90;;;;;;4998413;28;20201;-75
2022/10/09 01:03:57;;;;;;;586.72;412.27;;;12.60;99.90;;;;;;5006544;28;20659;-75
2022/10/09 01:06:36;;;;;;;588.28;411.30;;;12.60;99.90;;;;;;4998614;28;20204;-77
2022/10/09 01:09:10;;;;;;;589.53;399.83;;;12.60;99.90;;;;;;5000967;28;20197;-75
2022/10/09 01:11:45;;;;;;;582.40;396.10;;;12.60;99.90;;;;;;5002456;28;20205;-76
2022/10/09 01:14:20;;;;;;;580.67;399.17;;;12.60;99.90;;;;;;5015740;28;20184;-77
2022/10/09 01:16:55;;;;;;;582.22;404.98;;;12.60;99.90;;;;;;5006171;28;20204;-76
2022/10/09 01:19:35;;;;;;;581.35;393.85;;;12.60;99.90;;;;;;5009567;28;20196;-75
2022/10/09 01:22:13;;;;;;;602.63;394.05;;;12.60;99.90;;;;;;5010175;28;20568;-75
2022/10/09 01:24:44;;;;;;;606.20;406.40;;;12.60;99.90;;;;;;5005862;28;20676;-75
2022/10/09 01:27:18;;;;;;;581.28;395.48;;;12.60;99.90;;;;;;5007429;28;20675;-76
2022/10/09 01:29:49;;;;;;;586.60;395.58;;;12.50;99.90;;;;;;5003886;28;20206;-75
2022/10/09 01:32:20;;;;;;;581.60;386.88;;;12.50;99.90;;;;;;5006288;28;20801;-75
2022/10/09 01:34:49;;;;;;;580.65;391.20;;;12.50;99.90;;;;;;5012593;28;20192;-78
2022/10/09 01:37:18;;;;;;;571.15;387.63;;;12.50;99.90;;;;;;5017918;28;20208;-74
2022/10/09 01:39:46;;;;;;;556.53;396.52;;;12.50;99.90;;;;;;5009251;28;20201;-75
2022/10/09 01:42:16;;;;;;;554.10;394.10;;;12.50;99.90;;;;;;5007185;28;20199;-76
2022/10/09 01:44:43;;;;;;;552.58;396.00;;;12.50;99.90;;;;;;5012498;28;20197;-75
2022/10/09 01:47:14;;;;;;;549.30;396.98;;;12.50;99.90;;;;;;5003869;28;20221;-76
2022/10/09 01:49:46;;;;;;;559.17;393.85;;;12.40;99.90;;;;;;5000922;28;20197;-75
2022/10/09 01:52:24;;;;;;;598.70;399.83;;;12.50;99.90;;;;;;5001672;28;20656;-75
2022/10/09 01:55:08;;;;;;;589.53;372.13;;;12.40;99.90;;;;;;5006343;28;20200;-75
2022/10/09 01:57:41;;;;;;;598.45;387.33;;;12.40;99.90;;;;;;5006068;28;20200;-76
2022/10/09 02:00:10;;;;;;;595.03;389.00;;;12.40;99.90;;;;;;5005361;28;20216;-78
2022/10/09 02:02:38;;;;;;;608.42;387.27;;;12.40;99.90;;;;;;5001541;28;20197;-76
2022/10/09 02:05:06;;;;;;;602.20;383.20;;;12.40;99.90;;;;;;5005775;28;20582;-75
2022/10/09 02:07:33;;;;;;;607.13;389.58;;;12.40;99.90;;;;;;5003825;28;20227;-79
2022/10/09 02:10:02;;;;;;;526.42;382.95;;;12.40;99.90;;;;;;5004723;28;20549;-80
2022/10/09 02:12:33;;;;;;;525.83;388.27;;;12.40;99.90;;;;;;5005899;28;20759;-79
2022/10/09 02:15:01;;;;;;;554.58;393.65;;;12.40;99.90;;;;;;5009253;28;20195;-74
2022/10/09 02:17:33;;;;;;;538.33;372.73;;;12.30;99.90;;;;;;5007602;28;20235;-75
2022/10/09 02:20:05;;;;;;;608.58;391.67;;;12.30;99.90;;;;;;5010711;28;20192;-78
2022/10/09 02:22:34;;;;;;;609.17;382.95;;;12.30;99.90;;;;;;5005288;28;20197;-75
2022/10/09 02:25:04;;;;;;;616.25;392.33;;;12.30;99.90;;;;;;5005863;28;20197;-75
2022/10/09 02:27:32;;;;;;;610.20;388.48;;;12.30;99.90;;;;;;5005630;28;20754;-76
2022/10/09 02:30:00;;;;;;;609.55;386.60;;;12.30;99.90;;;;;;5005072;28;20204;-75
2022/10/09 02:32:28;;;;;;;605.90;383.08;;;12.30;99.90;;;;;;5006549;28;20660;-75
2022/10/09 02:34:55;;;;;;;591.47;386.10;;;12.30;99.90;;;;;;5006816;28;20201;-75
2022/10/09 02:37:21;;;;;;;593.53;388.55;;;12.20;99.90;;;;;;4998128;28;20604;-76
2022/10/09 02:39:49;;;;;;;591.95;387.05;;;12.20;99.90;;;;;;5007621;28;20197;-75
2022/10/09 02:42:15;;;;;;;594.67;382.50;;;12.20;99.90;;;;;;5004053;28;20616;-75
2022/10/09 02:44:42;;;;;;;591.85;393.45;;;12.20;99.90;;;;;;5014189;28;20188;-76
2022/10/09 02:47:10;;;;;;;594.03;379.88;;;12.20;99.90;;;;;;5015690;28;20188;-76
2022/10/09 02:49:37;;;;;;;593.10;379.30;;;12.20;99.90;;;;;;5006068;28;20196;-77
2022/10/09 02:52:04;;;;;;;600.58;381.63;;;12.20;99.90;;;;;;4993955;28;20663;-75
2022/10/09 02:54:31;;;;;;;629.17;383.10;;;12.20;99.90;;;;;;4998574;28;20406;-76
2022/10/09 02:56:58;;;;;;;639.33;381.38;;;12.20;99.90;;;;;;5009602;28;20571;-75
2022/10/09 02:59:25;;;;;;;649.58;374.13;;;12.20;99.90;;;;;;5003079;28;20204;-75
2022/10/09 03:01:51;;;;;;;600.20;379.67;;;12.20;99.90;;;;;;5005890;28;20215;-76
2022/10/09 03:04:19;;;;;;;592.13;362.63;;;12.10;99.90;;;;;;4997658;28;20197;-75
2022/10/09 03:06:46;;;;;;;668.00;382.88;;;12.10;99.90;;;;;;5003835;28;20207;-75
2022/10/09 03:09:13;;;;;;;682.05;385.67;;;12.10;99.90;;;;;;5008899;28;20230;-75
2022/10/09 03:11:39;;;;;;;667.22;374.15;;;12.10;99.90;;;;;;5013595;28;20682;-76
2022/10/09 03:14:06;;;;;;;590.42;353.08;;;12.10;99.90;;;;;;5001139;28;20206;-75
2022/10/09 03:16:33;;;;;;;675.20;373.52;;;12.10;99.90;;;;;;5002988;28;20204;-75
2022/10/09 03:19:00;;;;;;;677.10;374.00;;;12.10;99.90;;;;;;5004204;28;20286;-77
2022/10/09 03:21:28;;;;;;;678.10;358.23;;;12.10;99.90;;;;;;5008045;28;20652;-75
2022/10/09 03:23:55;;;;;;;679.88;368.85;;;12.10;99.90;;;;;;5012944;28;20200;-75
2022/10/09 03:26:24;;;;;;;682.38;371.45;;;12.00;99.90;;;;;;4998274;28;20208;-76
2022/10/09 03:28:52;;;;;;;678.95;363.73;;;12.00;99.90;;;;;;4996994;28;20216;-75
2022/10/09 03:31:21;;;;;;;677.28;367.40;;;12.00;99.90;;;;;;5003471;28;20274;-76
2022/10/09 03:33:47;;;;;;;675.92;349.65;;;12.00;99.90;;;;;;5003883;28;20200;-75
2022/10/09 03:36:14;;;;;;;678.47;363.08;;;12.00;99.90;;;;;;4995702;28;20204;-76
2022/10/09 03:38:42;;;;;;;678.63;368.10;;;12.00;99.90;;;;;;4997932;28;20199;-75
2022/10/09 03:41:09;;;;;;;676.42;359.25;;;12.00;99.90;;;;;;5001964;28;20193;-75
2022/10/09 03:43:36;;;;;;;674.25;348.02;;;12.00;99.90;;;;;;4996259;28;20644;-74
2022/10/09 03:46:07;;;;;;;679.50;368.13;;;12.00;99.90;;;;;;5001443;28;20541;-75
2022/10/09 03:48:34;;;;;;;677.25;374.00;;;11.90;99.90;;;;;;5000896;28;20576;-74
2022/10/09 03:51:01;;;;;;;675.70;354.58;;;11.90;99.90;;;;;;5000704;28;20201;-77
2022/10/09 03:53:28;;;;;;;674.88;362.80;;;11.90;99.90;;;;;;4994760;28;20204;-77
2022/10/09 03:55:56;;;;;;;677.47;350.33;;;11.90;99.90;;;;;;4998556;28;20602;-75
2022/10/09 03:58:23;;;;;;;673.78;352.17;;;11.90;99.90;;;;;;4996165;28;20196;-75
2022/10/09 04:00:51;;;;;;;664.60;338.10;;;11.90;99.90;;;;;;4995622;28;20692;-76
2022/10/09 04:03:18;;;;;;;659.17;365.65;;;11.90;99.90;;;;;;5001395;28;20200;-75
2022/10/09 04:05:44;;;;;;;668.08;359.60;;;11.90;99.90;;;;;;4996638;28;20204;-76
2022/10/09 04:08:11;;;;;;;659.88;362.80;;;11.90;99.90;;;;;;4999986;28;20224;-77
2022/10/09 04:10:38;;;;;;;635.75;361.40;;;11.80;99.90;;;;;;5000714;28;20697;-75
2022/10/09 04:13:07;;;;;;;626.55;366.63;;;11.80;99.90;;;;;;5005089;28;20742;-76
2022/10/09 04:15:34;;;;;;;616.35;365.65;;;11.80;99.90;;;;;;5000411;28;20638;-76
2022/10/09 04:18:01;;;;;;;538.50;361.10;;;11.80;99.90;;;;;;5009643;28;20212;-75
2022/10/09 04:20:27;;;;;;;537.97;357.88;;;11.80;99.90;;;;;;5001066;28;20664;-75
2022/10/09 04:22:54;;;;;;;544.80;364.08;;;11.80;99.90;;;;;;5009329;28;20197;-75
2022/10/09 04:25:21;;;;;;;547.45;350.20;;;11.80;99.90;;;;;;5001022;28;20204;-77
2022/10/09 04:27:48;;;;;;;581.67;373.60;;;11.80;99.90;;;;;;5008338;28;20200;-75
2022/10/09 04:30:16;;;;;;;608.78;342.27;;;11.80;99.90;;;;;;4998433;28;20203;-75
2022/10/09 04:32:43;;;;;;;590.35;364.02;;;11.80;99.90;;;;;;5008071;28;20204;-77
2022/10/09 04:35:09;;;;;;;589.17;356.60;;;11.70;99.90;;;;;;5008694;28;20228;-77
2022/10/09 04:37:36;;;;;;;610.22;350.40;;;11.70;99.90;;;;;;5005250;28;20205;-75
2022/10/09 04:40:03;;;;;;;612.95;354.95;;;11.70;99.90;;;;;;5002913;28;20193;-77
2022/10/09 04:42:30;;;;;;;578.55;355.83;;;11.70;99.90;;;;;;5008409;28;20197;-74
2022/10/09 04:44:57;;;;;;;585.88;350.83;;;11.70;99.90;;;;;;5008841;28;20193;-76
2022/10/09 04:47:25;;;;;;;605.72;360.30;;;11.70;99.90;;;;;;5003639;28;20711;-75
2022/10/09 04:49:52;;;;;;;613.13;355.95;;;11.70;99.90;;;;;;5004729;28;20227;-75
2022/10/09 04:52:19;;;;;;;613.33;335.23;;;11.70;99.90;;;;;;5006353;28;20198;-75
2022/10/09 04:54:45;;;;;;;619.03;353.77;;;11.70;99.90;;;;;;5003917;28;20221;-74
2022/10/09 04:57:12;;;;;;;608.88;356.05;;;11.60;99.90;;;;;;4997221;28;21109;-76
2022/10/09 04:59:39;;;;;;;598.47;344.88;;;11.60;99.90;;;;;;5010514;28;20201;-75
2022/10/09 05:02:05;;;;;;;614.70;345.25;;;11.60;99.90;;;;;;5003513;28;20213;-75
2022/10/09 05:04:34;;;;;;;614.63;357.40;;;11.60;99.90;;;;;;5004901;28;20227;-77
2022/10/09 05:07:00;;;;;;;556.03;347.45;;;11.60;99.90;;;;;;4997156;28;20213;-75
2022/10/09 05:09:27;;;;;;;547.53;348.60;;;11.60;99.90;;;;;;5009870;28;20748;-75
2022/10/09 05:11:54;;;;;;;552.28;347.73;;;11.60;99.90;;;;;;5000298;28;20200;-75
2022/10/09 05:14:20;;;;;;;553.15;351.95;;;11.60;99.90;;;;;;5016183;28;20204;-74
2022/10/09 05:16:50;;;;;;;558.03;346.00;;;11.60;99.90;;;;;;5001908;28;20204;-75
2022/10/09 05:19:17;;;;;;;597.38;344.85;;;11.60;99.90;;;;;;5007377;28;20706;-76
2022/10/09 05:21:45;;;;;;;546.00;356.92;;;11.60;99.90;;;;;;5003232;28;20196;-76
2022/10/09 05:24:11;;;;;;;545.83;348.83;;;11.60;99.90;;;;;;5019344;28;20207;-76
2022/10/09 05:26:38;;;;;;;600.25;348.42;;;11.50;99.90;;;;;;4997468;28;20204;-75
2022/10/09 05:29:05;;;;;;;532.75;348.10;;;11.50;99.90;;;;;;5011682;28;20567;-75
2022/10/09 05:31:32;;;;;;;623.45;360.58;;;11.50;99.90;;;;;;5007152;28;20208;-77
2022/10/09 05:34:00;;;;;;;646.92;346.75;;;11.50;99.90;;;;;;5000434;28;20284;-75
2022/10/09 05:36:26;;;;;;;642.28;346.40;;;11.50;99.90;;;;;;5006851;28;20196;-76
2022/10/09 05:38:54;;;;;;;641.72;337.70;;;11.50;99.90;;;;;;5003603;28;20223;-75
2022/10/09 05:41:21;;;;;;;645.45;345.25;;;11.50;99.90;;;;;;5009707;28;20213;-75
2022/10/09 05:43:49;;;;;;;651.05;341.60;;;11.50;99.90;;;;;;4996631;28;20193;-75
2022/10/09 05:46:17;;;;;;;655.08;349.98;;;11.50;99.90;;;;;;5007805;28;20205;-75
2022/10/09 05:48:46;;;;;;;653.92;344.13;;;11.50;99.90;;;;;;5004609;28;20690;-75
2022/10/09 05:51:14;;;;;;;654.70;353.27;;;11.50;99.90;;;;;;5005529;28;20197;-76
2022/10/09 05:53:43;;;;;;;649.67;343.17;;;11.40;99.90;;;;;;5013837;28;20196;-75
2022/10/09 05:56:13;;;;;;;652.65;347.05;;;11.40;99.90;;;;;;5018982;28;21932;-74
2022/10/09 05:58:40;;;;;;;651.33;340.48;;;11.40;99.90;;;;;;5004471;28;20196;-75
2022/10/09 06:01:07;;;;;;;653.15;339.05;;;11.40;99.90;;;;;;5010201;28;20201;-76
2022/10/09 06:03:34;;;;;;;658.70;333.15;;;11.40;99.90;;;;;;5008874;28;20532;-75
2022/10/09 06:06:03;;;;;;;661.25;343.35;;;11.40;99.90;;;;;;5004102;28;20224;-76
2022/10/09 06:08:33;;;;;;;655.35;316.30;;;11.40;99.90;;;;;;5018449;28;20223;-75
2022/10/09 06:11:08;;;;;;;661.72;342.15;;;11.40;99.90;;;;;;5009156;28;20205;-75
2022/10/09 06:13:37;;;;;;;664.65;338.48;;;11.40;99.90;;;;;;5006503;28;20207;-75
2022/10/09 06:16:03;;;;;;;667.50;345.48;;;11.40;99.90;;;;;;5001991;28;20206;-76
2022/10/09 06:18:30;;;;;;;668.75;346.67;;;11.40;99.90;;;;;;4995563;28;20222;-76
2022/10/09 06:20:59;;;;;;;667.17;345.80;;;11.40;99.90;;;;;;5004752;28;20193;-76
2022/10/09 06:23:27;;;;;;;662.55;334.05;;;11.40;99.90;;;;;;5010516;28;20208;-76
2022/10/09 06:25:55;;;;;;;662.95;318.60;;;11.40;99.90;;;;;;5006712;28;20208;-76
2022/10/09 06:28:22;;;;;;;671.28;345.45;;;11.40;99.90;;;;;;5007367;28;20571;-76
2022/10/09 06:30:51;;;;;;;668.75;339.02;;;11.40;99.90;;;;;;5012407;28;20644;-76
2022/10/09 06:33:18;;;;;;;663.38;335.40;;;11.40;99.90;;;;;;5011215;28;20198;-75
2022/10/09 06:35:45;;;;;;;668.47;348.35;;;11.40;99.90;;;;;;5002675;28;20280;-77
2022/10/09 06:38:14;;;;;;;661.78;340.42;;;11.40;99.90;;;;;;5017390;28;20188;-75
2022/10/09 06:40:40;;;;;;;669.72;344.50;;;11.40;99.90;;;;;;5010704;28;20196;-75
2022/10/09 06:43:07;;;;;;;672.97;345.58;;;11.40;99.90;;;;;;5011875;28;20664;-77
2022/10/09 06:45:36;;;;;;;672.80;350.05;;;11.40;99.90;;;;;;5011480;28;20196;-78
2022/10/09 06:48:05;;;;;;;671.88;349.45;;;11.40;99.90;;;;;;5005203;28;20203;-77
2022/10/09 06:50:35;;;;;;;672.15;351.45;;;11.40;99.90;;;;;;5006278;28;20694;-76
2022/10/09 06:53:02;;;;;;;669.30;347.63;;;11.50;99.90;;;;;;5003739;28;20215;-75
2022/10/09 06:55:29;;;;;;;667.60;326.15;;;11.50;99.90;;;;;;5019714;28;20211;-75
2022/10/09 06:57:55;;;;;;;674.88;356.55;;;11.60;99.90;;;;;;5000967;28;20189;-77
2022/10/09 07:00:22;;;;;;;672.70;346.60;;;11.70;99.90;;;;;;4997600;28;20197;-76
2022/10/09 07:02:50;;;;;;;672.55;344.77;;;11.80;99.90;;;;;;5024702;28;20204;-76
2022/10/09 07:05:18;;;;;;;676.67;364.38;;;12.00;99.90;;;;;;5007157;28;20703;-76
2022/10/09 07:07:45;;;;;;;674.95;360.83;;;12.10;99.90;;;;;;5012666;28;20204;-76
2022/10/09 07:10:12;;;;;;;674.38;369.90;;;12.20;99.90;;;;;;5004823;28;20227;-77
2022/10/09 07:12:39;;;;;;;677.70;367.25;;;12.40;99.90;;;;;;5002560;28;20200;-75
2022/10/09 07:15:07;;;;;;;681.63;380.13;;;12.60;99.90;;;;;;5000461;28;20200;-77
2022/10/09 07:17:34;;;;;;;683.67;388.75;;;12.70;99.90;;;;;;5001196;28;20571;-76
2022/10/09 07:20:00;;;;;;;680.63;373.15;;;12.90;99.90;;;;;;4999941;28;20651;-75
2022/10/09 07:22:28;;;;;;;687.83;411.00;;;13.00;99.90;;;;;;5017463;28;20219;-76
2022/10/09 07:24:55;;;;;;;686.60;403.65;;;13.10;99.90;;;;;;5025818;28;20290;-76
2022/10/09 07:27:22;;;;;;;682.70;394.63;;;13.20;99.90;;;;;;5000890;28;20220;-76
2022/10/09 07:29:49;;;;;;;685.25;409.33;;;13.20;99.90;;;;;;5018535;28;20217;-75
2022/10/09 07:32:15;;;;;;;687.53;414.52;;;13.30;99.90;;;;;;5021070;28;20655;-75
2022/10/09 07:34:42;;;;;;;688.30;416.70;;;13.40;99.90;;;;;;5015587;28;20223;-78
2022/10/09 07:37:09;;;;;;;688.42;430.45;;;13.50;99.90;;;;;;5005741;28;20255;-75
2022/10/09 07:39:37;;;;;;;685.17;432.15;;;13.60;99.90;;;;;;5024183;28;20205;-76
2022/10/09 07:42:06;;;;;;;686.83;428.77;;;13.60;99.90;;;;;;5014906;28;20314;-76
2022/10/09 07:44:34;;;;;;;683.72;412.63;;;13.70;99.90;;;;;;5019359;28;20761;-76
2022/10/09 07:47:00;;;;;;;692.45;439.83;;;13.70;99.90;;;;;;5012931;28;20200;-75
2022/10/09 07:49:27;;;;;;;662.35;444.23;;;13.80;99.90;;;;;;5010673;28;20227;-75
2022/10/09 07:51:54;;;;;;;688.28;444.15;;;13.80;99.90;;;;;;5010317;28;20199;-76
2022/10/09 07:54:21;;;;;;;692.60;442.98;;;13.80;99.90;;;;;;5008973;28;20200;-75
2022/10/09 07:56:49;;;;;;;695.65;454.85;;;13.90;99.90;;;;;;5003286;28;20608;-75
2022/10/09 07:59:16;;;;;;;698.85;457.92;;;13.90;99.90;;;;;;5004717;28;20678;-75
2022/10/09 08:01:43;;;;;;;693.53;451.27;;;14.00;99.90;;;;;;5004885;28;20673;-75
2022/10/09 08:04:10;;;;;;;695.97;463.45;;;14.00;99.90;;;;;;5002772;28;20211;-77
2022/10/09 08:06:37;;;;;;;694.22;460.77;;;14.00;99.90;;;;;;5004758;28;20235;-75
2022/10/09 08:09:06;;;;;;;692.80;457.65;;;14.00;99.90;;;;;;5008915;28;20226;-76
2022/10/09 08:11:34;;;;;;;697.00;467.33;;;14.00;99.90;;;;;;5003812;28;20193;-75
2022/10/09 08:14:02;;;;;;;692.63;448.58;;;14.00;99.90;;;;;;5002347;28;20288;-78
2022/10/09 08:16:28;;;;;;;694.45;468.58;;;14.10;99.90;;;;;;5019215;28;20198;-78
2022/10/09 08:18:57;;;;;;;688.83;447.77;;;14.10;99.90;;;;;;5006706;28;20221;-75
2022/10/09 08:21:26;;;;;;;693.97;474.67;;;14.10;99.90;;;;;;5006035;28;20283;-78
2022/10/09 08:23:54;;;;;;;687.78;440.58;;;14.20;99.90;;;;;;5018613;28;20209;-78
2022/10/09 08:26:23;;;;;;;697.85;465.30;;;14.20;99.90;;;;;;5008115;28;20287;-78
2022/10/09 08:28:51;;;;;;;705.30;488.75;;;14.20;99.90;;;;;;5028908;28;20663;-78
2022/10/09 08:31:20;;;;;;;696.92;471.00;;;14.20;99.90;;;;;;5015176;28;20215;-78
2022/10/09 08:33:47;;;;;;;695.63;462.38;;;14.20;99.90;;;;;;4999996;28;20564;-78
2022/10/09 08:36:15;;;;;;;690.80;459.45;;;14.20;99.90;;;;;;5010013;28;20674;-77
2022/10/09 08:38:43;;;;;;;696.22;482.67;;;14.30;99.90;;;;;;5012615;28;20208;-77
2022/10/09 08:41:14;;;;;;;695.97;474.00;;;14.30;99.90;;;;;;5004237;28;20251;-78
2022/10/09 08:43:45;;;;;;;694.92;476.75;;;14.30;99.90;;;;;;5003826;28;20296;-80
2022/10/09 08:46:19;;;;;;;692.78;467.77;;;14.30;99.90;;;;;;5009092;28;20691;-78
2022/10/09 08:48:49;;;;;;;696.72;488.00;;;14.30;99.90;;;;;;5011692;28;20192;-77
2022/10/09 08:51:21;;;;;;;697.47;486.48;;;14.30;99.90;;;;;;5020346;28;20679;-78
2022/10/09 08:53:54;;;;;;;698.90;491.85;;;14.30;99.90;;;;;;5017374;28;20694;-77
2022/10/09 08:56:23;;;;;;;697.80;486.02;;;14.30;99.90;;;;;;5006778;28;20212;-77
2022/10/09 08:58:49;;;;;;;692.10;470.10;;;14.30;99.90;;;;;;5011559;28;20287;-77
2022/10/09 09:01:23;;;;;;;700.25;495.50;;;14.30;99.90;;;;;;5015297;28;20204;-78
2022/10/09 09:04:09;;;;;;;694.70;487.42;;;14.30;99.90;;;;;;5010363;28;20200;-77
2022/10/09 09:06:40;;;;;;;698.05;491.42;;;14.30;99.90;;;;;;5017700;28;20201;-79
2022/10/09 09:09:15;;;;;;;693.20;484.80;;;14.30;99.90;;;;;;5007409;28;20540;-78
2022/10/09 09:11:49;;;;;;;694.20;482.40;;;14.30;99.90;;;;;;5003414;28;20651;-76
2022/10/09 09:14:27;;;;;;;697.38;482.75;;;14.30;99.90;;;;;;5010601;28;20191;-77
2022/10/09 09:17:02;;;;;;;692.28;470.92;;;14.30;99.90;;;;;;5019117;28;20226;-77
2022/10/09 09:19:45;;;;;;;695.10;483.05;;;14.30;99.90;;;;;;5018070;28;20674;-77
2022/10/09 09:22:13;;;;;;;696.88;480.27;;;14.40;99.90;;;;;;5006511;28;20196;-78
2022/10/09 09:24:44;;;;;;;696.72;485.02;;;14.30;99.90;;;;;;5013153;28;20565;-78
2022/10/09 09:27:14;;;;;;;694.30;487.75;;;14.30;99.90;;;;;;5009939;28;20193;-77
2022/10/09 09:29:44;;;;;;;693.40;487.98;;;14.30;99.90;;;;;;5003025;28;20220;-76
2022/10/09 09:32:20;;;;;;;687.28;470.00;;;14.30;99.90;;;;;;5019277;28;20195;-78
2022/10/09 09:34:48;;;;;;;691.00;478.73;;;14.30;99.90;;;;;;5017868;28;20660;-78
2022/10/09 09:37:16;;;;;;;692.97;470.38;;;14.30;99.90;;;;;;5016582;28;20207;-77
2022/10/09 09:39:43;;;;;;;701.53;494.83;;;14.40;99.90;;;;;;5003974;28;20204;-77
2022/10/09 09:42:16;;;;;;;695.63;487.85;;;14.30;99.90;;;;;;5004499;28;20762;-78
2022/10/09 09:44:49;;;;;;;693.33;477.05;;;14.30;99.90;;;;;;4993972;28;22203;-79
2022/10/09 09:47:21;;;;;;;693.75;473.00;;;14.40;99.90;;;;;;5008412;28;20211;-78
2022/10/09 09:49:58;;;;;;;696.28;487.65;;;14.30;99.90;;;;;;5003519;28;20217;-78
2022/10/09 09:52:28;;;;;;;690.47;482.27;;;14.30;99.90;;;;;;5007271;28;20200;-77
2022/10/09 09:54:57;;;;;;;691.35;476.35;;;14.30;99.90;;;;;;5007339;28;20204;-78
2022/10/09 09:57:32;;;;;;;694.28;479.25;;;14.30;99.90;;;;;;5011657;28;20641;-78
2022/10/09 10:00:18;;;;;;;692.40;479.73;;;14.30;99.90;;;;;;5005700;28;20307;-78
2022/10/09 10:02:45;;;;;;;690.15;476.27;;;14.30;99.90;;;;;;5014684;28;20680;-78
2022/10/09 10:05:21;;;;;;;691.90;490.63;;;14.30;99.90;;;;;;5010398;28;20202;-77
2022/10/09 10:07:48;;;;;;;689.75;477.20;;;14.30;99.90;;;;;;5001039;28;20200;-77
2022/10/09 10:10:18;;;;;;;689.38;493.05;;;14.30;99.90;;;;;;5002447;28;20225;-78
2022/10/09 10:12:47;;;;;;;686.05;458.50;;;14.30;99.90;;;;;;5006075;28;20211;-78
2022/10/09 10:15:19;;;;;;;687.00;475.23;;;14.30;99.90;;;;;;5007457;28;20205;-79
2022/10/09 10:17:48;;;;;;;691.33;479.75;;;14.30;99.90;;;;;;4999992;28;20211;-80
2022/10/09 10:20:17;;;;;;;695.33;490.08;;;14.30;99.90;;;;;;5003937;28;20205;-78
2022/10/09 10:22:51;;;;;;;689.67;492.48;;;14.30;99.90;;;;;;5010120;28;20204;-77
2022/10/09 10:25:20;;;;;;;688.95;483.58;;;14.30;99.90;;;;;;5007194;28;20250;-77
2022/10/09 10:27:50;;;;;;;686.00;470.05;;;14.30;99.90;;;;;;5005792;28;20200;-77
2022/10/09 10:30:18;;;;;;;686.35;479.27;;;14.30;99.90;;;;;;5009170;28;20698;-78
2022/10/09 10:32:54;;;;;;;684.70;472.83;;;14.30;99.90;;;;;;5002705;28;20250;-77
2022/10/09 10:35:25;;;;;;;688.45;488.83;;;14.30;99.90;;;;;;5010534;28;20575;-80
2022/10/09 10:37:58;;;;;;;678.70;478.10;;;14.30;99.90;;;;;;5001898;28;20200;-76
2022/10/09 10:40:30;;;;;;;625.70;473.92;;;14.30;99.90;;;;;;4997904;28;20224;-76
2022/10/09 10:43:06;;;;;;;625.03;478.60;;;14.30;99.90;;;;;;5002950;28;20556;-77
2022/10/09 10:45:38;;;;;;;614.90;476.88;;;14.30;99.90;;;;;;4994792;28;20655;-78
2022/10/09 10:48:10;;;;;;;614.33;471.85;;;14.30;99.90;;;;;;5005308;28;20235;-77
2022/10/09 10:50:45;;;;;;;611.40;475.35;;;14.30;99.90;;;;;;5006234;28;20220;-77
2022/10/09 10:53:17;;;;;;;620.65;478.08;;;14.30;99.90;;;;;;5001704;28;20208;-77
2022/10/09 10:55:52;;;;;;;593.05;483.10;;;14.20;99.90;;;;;;5000209;28;20592;-77
2022/10/09 10:58:26;;;;;;;586.40;483.98;;;14.20;99.90;;;;;;5002719;28;20209;-78
2022/10/09 11:01:04;;;;;;;585.63;477.23;;;14.20;99.90;;;;;;5014024;28;20583;-76
2022/10/09 11:03:43;;;;;;;587.88;478.88;;;14.20;99.90;;;;;;5006887;28;20205;-76
2022/10/09 11:06:20;;;;;;;586.45;480.20;;;14.20;99.90;;;;;;5003438;28;20675;-76
2022/10/09 11:09:00;;;;;;;587.70;467.73;;;14.20;99.90;;;;;;5003524;28;20195;-77
2022/10/09 11:11:36;;;;;;;569.97;466.55;;;14.20;99.90;;;;;;4999861;28;20209;-76
2022/10/09 11:14:16;;;;;;;575.95;475.35;;;14.30;99.90;;;;;;5010998;28;20560;-78
2022/10/09 11:16:53;;;;;;;575.80;469.70;;;14.20;99.90;;;;;;5005470;28;20251;-77
2022/10/09 11:19:41;;;;;;;571.78;471.50;;;14.20;99.90;;;;;;5001078;28;20618;-76
2022/10/09 11:22:18;;;;;;;571.75;475.35;;;14.20;99.90;;;;;;5008155;28;20572;-76
2022/10/09 11:24:59;;;;;;;574.03;475.10;;;14.20;99.90;;;;;;5005433;28;20659;-78
2022/10/09 11:27:34;;;;;;;566.80;466.35;;;14.30;99.90;;;;;;5008063;28;20651;-76
2022/10/09 11:30:06;;;;;;;577.22;480.02;;;14.20;99.90;;;;;;5002484;28;20203;-78
2022/10/09 11:32:40;;;;;;;575.92;471.63;;;14.30;99.90;;;;;;5002918;28;20199;-77
2022/10/09 11:35:14;;;;;;;582.05;477.98;;;14.20;99.90;;;;;;4995143;28;20218;-77
2022/10/09 11:37:50;;;;;;;574.58;491.15;;;14.30;99.90;;;;;;5004444;28;20199;-78
2022/10/09 11:40:21;;;;;;;565.47;484.42;;;14.30;99.90;;;;;;4999155;28;20302;-77
2022/10/09 11:42:55;;;;;;;561.30;473.35;;;14.30;99.90;;;;;;5000764;28;20207;-78
2022/10/09 11:45:28;;;;;;;557.03;473.92;;;14.30;99.90;;;;;;5011773;28;20202;-79
2022/10/09 11:48:04;;;;;;;559.72;474.27;;;14.20;99.90;;;;;;5008478;28;20200;-77
2022/10/09 11:50:42;;;;;;;551.05;458.25;;;14.20;99.90;;;;;;5007749;28;20223;-79
2022/10/09 11:53:13;;;;;;;557.13;463.65;;;14.30;99.90;;;;;;5009620;28;20250;-77
2022/10/09 11:55:40;;;;;;;552.88;453.48;;;14.20;99.90;;;;;;4995779;28;20506;-76
2022/10/09 11:58:13;;;;;;;564.78;476.88;;;14.20;99.90;;;;;;5008830;28;20200;-77
2022/10/09 12:00:41;;;;;;;556.20;476.27;;;14.30;99.90;;;;;;5000137;28;20627;-78
2022/10/09 12:03:19;;;;;;;562.17;475.33;;;14.20;99.90;;;;;;5003862;28;20197;-77
2022/10/09 12:05:48;;;;;;;559.28;474.33;;;14.20;99.90;;;;;;5008627;28;20207;-78
2022/10/09 12:08:24;;;;;;;558.30;468.83;;;14.30;99.90;;;;;;5002935;28;20216;-75
2022/10/09 12:10:53;;;;;;;557.53;452.30;;;14.30;99.90;;;;;;5004472;28;20228;-76
2022/10/09 12:13:42;;;;;;;559.70;472.20;;;14.20;99.90;;;;;;5007881;28;20300;-75
2022/10/09 12:16:26;;;;;;;554.30;465.98;;;14.20;99.90;;;;;;5004513;28;20565;-76
2022/10/09 12:18:54;;;;;;;558.58;460.65;;;14.20;99.90;;;;;;5002048;28;20219;-76
2022/10/09 12:21:25;;;;;;;567.40;479.25;;;14.20;99.90;;;;;;4999676;28;20200;-76